createdAt,value
2022-08-16T00:01:26.504Z,100.00
2022-08-16T00:03:57.255Z,100.00
2022-08-16T00:06:25.622Z,100.00
2022-08-16T00:08:53.929Z,100.00
2022-08-16T00:11:22.650Z,100.00
2022-08-16T00:13:53.687Z,100.00
2022-08-16T00:17:06.680Z,100.00
2022-08-16T00:19:22.568Z,100.00
2022-08-16T00:22:01.035Z,100.00
2022-08-16T00:24:33.155Z,100.00
2022-08-16T00:27:04.088Z,100.00
2022-08-16T00:29:32.965Z,100.00
2022-08-16T00:32:05.869Z,100.00
2022-08-16T00:34:44.139Z,100.00
2022-08-16T00:37:58.895Z,100.00
2022-08-16T00:40:34.980Z,100.00
2022-08-16T00:43:20.394Z,100.00
2022-08-16T00:46:00.940Z,100.00
2022-08-16T00:48:48.561Z,100.00
2022-08-16T00:51:20.315Z,100.00
2022-08-16T00:53:51.643Z,100.00
2022-08-16T00:56:56.171Z,100.00
2022-08-16T00:59:15.197Z,100.00
2022-08-16T01:01:45.308Z,100.00
2022-08-16T01:04:30.318Z,100.00
2022-08-16T01:07:02.801Z,100.00
2022-08-16T01:09:38.579Z,100.00
2022-08-16T01:12:12.075Z,100.00
2022-08-16T01:14:57.537Z,100.00
2022-08-16T01:17:28.773Z,100.00
2022-08-16T01:20:24.072Z,100.00
2022-08-16T01:23:22.389Z,100.00
2022-08-16T01:26:00.227Z,100.00
2022-08-16T01:28:45.306Z,100.00
2022-08-16T01:31:16.599Z,100.00
2022-08-16T01:33:46.100Z,100.00
2022-08-16T01:36:19.132Z,100.00
2022-08-16T01:38:57.773Z,100.00
2022-08-16T01:41:30.709Z,100.00
2022-08-16T01:44:02.944Z,100.00
2022-08-16T01:46:45.013Z,100.00
2022-08-16T01:50:40.607Z,100.00
2022-08-16T01:52:29.385Z,100.00
2022-08-16T01:55:05.664Z,100.00
2022-08-16T01:57:35.751Z,100.00
2022-08-16T02:00:19.334Z,100.00
2022-08-16T02:02:52.303Z,100.00
2022-08-16T02:05:23.493Z,100.00
2022-08-16T02:07:52.352Z,100.00
2022-08-16T02:10:22.323Z,100.00
2022-08-16T02:12:59.856Z,100.00
2022-08-16T02:15:35.622Z,100.00
2022-08-16T02:18:13.041Z,100.00
2022-08-16T02:20:46.520Z,100.00
2022-08-16T02:23:17.326Z,100.00
2022-08-16T02:25:52.485Z,100.00
2022-08-16T02:28:24.401Z,100.00
2022-08-16T02:30:58.229Z,100.00
2022-08-16T02:33:44.015Z,100.00
2022-08-16T02:36:47.567Z,100.00
2022-08-16T02:39:10.957Z,100.00
2022-08-16T02:41:42.862Z,100.00
2022-08-16T02:44:13.604Z,100.00
2022-08-16T02:46:49.830Z,100.00
2022-08-16T02:49:58.459Z,100.00
2022-08-16T02:52:24.415Z,100.00
2022-08-16T02:55:02.019Z,100.00
2022-08-16T02:57:33.470Z,100.00
2022-08-16T03:00:34.007Z,100.00
2022-08-16T03:02:56.522Z,100.00
2022-08-16T03:05:26.030Z,100.00
2022-08-16T03:07:59.955Z,100.00
2022-08-16T03:10:33.353Z,100.00
2022-08-16T03:13:03.406Z,100.00
2022-08-16T03:15:32.385Z,100.00
2022-08-16T03:18:02.290Z,100.00
2022-08-16T03:20:34.326Z,100.00
2022-08-16T03:23:05.708Z,100.00
2022-08-16T03:25:43.996Z,100.00
2022-08-16T03:28:17.176Z,100.00
2022-08-16T03:30:48.580Z,100.00
2022-08-16T03:33:17.982Z,100.00
2022-08-16T03:36:30.363Z,100.00
2022-08-16T03:38:53.890Z,100.00
2022-08-16T03:41:25.231Z,100.00
2022-08-16T03:43:59.473Z,100.00
2022-08-16T03:46:47.799Z,100.00
2022-08-16T03:49:36.722Z,100.00
2022-08-16T03:52:08.275Z,100.00
2022-08-16T03:54:38.070Z,100.00
2022-08-16T03:57:06.871Z,100.00
2022-08-16T03:59:40.212Z,100.00
2022-08-16T04:02:22.283Z,100.00
2022-08-16T04:04:56.499Z,100.00
2022-08-16T04:07:26.202Z,100.00
2022-08-16T04:09:54.497Z,100.00
2022-08-16T04:12:54.482Z,100.00
2022-08-16T04:15:16.901Z,100.00
2022-08-16T04:17:57.854Z,100.00
2022-08-16T04:20:34.046Z,100.00
2022-08-16T04:23:10.865Z,100.00
2022-08-16T04:25:42.275Z,100.00
2022-08-16T04:28:29.218Z,100.00
2022-08-16T04:31:04.357Z,100.00
2022-08-16T04:33:38.330Z,100.00
2022-08-16T04:36:20.523Z,100.00
2022-08-16T04:38:49.955Z,100.00
2022-08-16T04:41:18.830Z,100.00
2022-08-16T04:44:01.090Z,100.00
2022-08-16T04:47:01.160Z,100.00
2022-08-16T04:49:17.935Z,100.00
2022-08-16T04:51:53.981Z,100.00
2022-08-16T04:54:23.871Z,100.00
2022-08-16T04:56:52.409Z,100.00
2022-08-16T04:59:22.256Z,100.00
2022-08-16T05:01:58.683Z,100.00
2022-08-16T05:04:30.042Z,100.00
2022-08-16T05:07:02.044Z,100.00
2022-08-16T05:09:49.553Z,100.00
2022-08-16T05:12:22.240Z,100.00
2022-08-16T05:15:02.765Z,100.00
2022-08-16T05:17:36.233Z,100.00
2022-08-16T05:20:38.857Z,100.00
2022-08-16T05:23:00.727Z,100.00
2022-08-16T05:25:41.316Z,100.00
2022-08-16T05:28:18.661Z,100.00
2022-08-16T05:30:53.166Z,100.00
2022-08-16T05:33:25.901Z,100.00
2022-08-16T05:35:57.504Z,100.00
2022-08-16T05:38:39.370Z,100.00
2022-08-16T05:41:13.836Z,100.00
2022-08-16T05:43:46.900Z,100.00
2022-08-16T05:46:29.883Z,100.00
2022-08-16T05:49:09.226Z,100.00
2022-08-16T05:51:41.911Z,100.00
2022-08-16T05:54:14.624Z,100.00
2022-08-16T05:56:49.103Z,100.00
2022-08-16T05:59:19.633Z,100.00
2022-08-16T06:01:51.918Z,100.00
2022-08-16T06:04:35.639Z,100.00
2022-08-16T06:07:08.189Z,100.00
2022-08-16T06:09:43.607Z,100.00
2022-08-16T06:12:26.682Z,100.00
2022-08-16T06:15:01.714Z,100.00
2022-08-16T06:17:41.498Z,100.00
2022-08-16T06:20:34.777Z,100.00
2022-08-16T06:23:16.894Z,100.00
2022-08-16T06:25:58.963Z,100.00
2022-08-16T06:28:36.476Z,100.00
2022-08-16T06:31:12.273Z,100.00
2022-08-16T06:33:45.177Z,100.00
2022-08-16T06:36:16.919Z,100.00
2022-08-16T06:38:57.011Z,100.00
2022-08-16T06:41:45.229Z,100.00
2022-08-16T06:44:34.591Z,100.00
2022-08-16T06:47:06.439Z,100.00
2022-08-16T06:49:37.336Z,100.00
2022-08-16T06:52:05.955Z,100.00
2022-08-16T06:54:54.188Z,100.00
2022-08-16T06:57:22.909Z,100.00
2022-08-16T06:59:53.011Z,100.00
2022-08-16T07:02:32.730Z,100.00
2022-08-16T07:05:03.381Z,89.35
2022-08-16T07:07:50.824Z,83.08
2022-08-16T07:10:25.596Z,93.82
2022-08-16T07:13:03.268Z,100.00
2022-08-16T07:15:35.253Z,100.00
2022-08-16T07:18:05.531Z,98.93
2022-08-16T07:20:47.972Z,95.88
2022-08-16T07:23:18.113Z,93.98
2022-08-16T07:25:52.365Z,100.00
2022-08-16T07:28:24.447Z,100.00
2022-08-16T07:30:59.595Z,97.27
2022-08-16T07:33:53.203Z,100.00
2022-08-16T07:36:28.996Z,93.61
2022-08-16T07:38:59.336Z,96.58
2022-08-16T07:41:31.076Z,94.68
2022-08-16T07:44:15.315Z,94.07
2022-08-16T07:46:48.280Z,97.32
2022-08-16T07:49:25.815Z,92.31
2022-08-16T07:52:01.693Z,97.09
2022-08-16T07:54:48.996Z,100.00
2022-08-16T07:57:24.501Z,90.32
2022-08-16T07:59:57.411Z,89.50
2022-08-16T08:02:27.274Z,82.43
2022-08-16T08:05:00.240Z,75.90
2022-08-16T08:07:32.366Z,68.18
2022-08-16T08:10:04.715Z,64.28
2022-08-16T08:12:35.811Z,63.69
2022-08-16T08:15:09.737Z,63.16
2022-08-16T08:17:42.580Z,61.09
2022-08-16T08:20:28.496Z,58.88
2022-08-16T08:23:00.739Z,59.10
2022-08-16T08:25:53.380Z,61.00
2022-08-16T08:28:20.663Z,67.51
2022-08-16T08:31:00.787Z,65.71
2022-08-16T08:33:32.526Z,65.73
2022-08-16T08:36:07.230Z,62.77
2022-08-16T08:38:45.321Z,63.31
2022-08-16T08:41:20.940Z,62.76
2022-08-16T08:43:57.218Z,64.79
2022-08-16T08:46:28.297Z,65.41
2022-08-16T08:49:08.846Z,66.59
2022-08-16T08:51:41.811Z,65.34
2022-08-16T08:54:18.624Z,70.14
2022-08-16T08:56:46.975Z,71.50
2022-08-16T08:59:26.878Z,73.76
2022-08-16T09:01:58.711Z,77.95
2022-08-16T09:04:35.099Z,77.86
2022-08-16T09:07:06.469Z,79.07
2022-08-16T09:09:41.212Z,80.18
2022-08-16T09:12:35.877Z,76.55
2022-08-16T09:15:15.127Z,76.78
2022-08-16T09:17:51.621Z,77.25
2022-08-16T09:20:25.849Z,80.27
2022-08-16T09:22:56.051Z,81.56
2022-08-16T09:25:40.407Z,74.46
2022-08-16T09:29:13.383Z,71.58
2022-08-16T09:31:16.011Z,74.60
2022-08-16T09:33:45.187Z,75.95
2022-08-16T09:36:31.845Z,72.90
2022-08-16T09:39:03.565Z,70.81
2022-08-16T09:41:32.204Z,71.25
2022-08-16T09:45:11.504Z,75.21
2022-08-16T09:46:57.436Z,74.81
2022-08-16T09:49:37.294Z,74.73
2022-08-16T09:52:05.796Z,75.12
2022-08-16T09:54:34.477Z,76.35
2022-08-16T09:57:03.323Z,71.69
2022-08-16T09:59:38.408Z,76.55
2022-08-16T10:02:25.965Z,72.35
2022-08-16T10:04:59.769Z,78.74
2022-08-16T10:07:44.278Z,72.50
2022-08-16T10:10:19.160Z,75.25
2022-08-16T10:13:11.966Z,69.69
2022-08-16T10:15:43.498Z,68.29
2022-08-16T10:19:01.058Z,66.05
2022-08-16T10:21:16.205Z,65.18
2022-08-16T10:23:45.100Z,69.23
2022-08-16T10:27:18.202Z,72.45
2022-08-16T10:29:04.749Z,71.61
2022-08-16T10:31:44.227Z,70.30
2022-08-16T10:34:30.917Z,69.02
2022-08-16T10:37:02.030Z,66.86
2022-08-16T10:39:40.563Z,65.17
2022-08-16T10:42:13.614Z,64.48
2022-08-16T10:44:42.890Z,68.67
2022-08-16T10:47:22.342Z,66.74
2022-08-16T10:49:50.544Z,66.37
2022-08-16T10:52:20.198Z,71.03
2022-08-16T10:57:37.302Z,62.92
2022-08-16T11:00:21.256Z,64.15
2022-08-16T11:03:00.384Z,64.26
2022-08-16T11:08:35.026Z,63.21
2022-08-16T11:11:11.531Z,65.94
2022-08-16T11:13:59.363Z,62.81
2022-08-16T11:19:22.785Z,59.44
2022-08-16T11:24:44.611Z,56.19
2022-08-16T11:27:23.037Z,56.26
2022-08-16T11:29:55.562Z,57.60
2022-08-16T11:32:32.530Z,55.09
2022-08-16T11:35:13.746Z,56.27
2022-08-16T11:38:23.626Z,55.12
2022-08-16T11:40:44.340Z,53.60
2022-08-16T11:43:16.985Z,52.14
2022-08-16T11:45:53.943Z,51.57
2022-08-16T11:48:25.633Z,52.62
2022-08-16T11:50:54.926Z,53.32
2022-08-16T11:53:24.398Z,55.60
2022-08-16T11:55:56.342Z,54.20
2022-08-16T11:58:26.488Z,57.54
2022-08-16T12:00:57.777Z,56.43
2022-08-16T12:03:34.755Z,54.82
2022-08-16T12:06:25.380Z,57.50
2022-08-16T12:09:00.851Z,58.89
2022-08-16T12:11:33.127Z,56.55
2022-08-16T12:14:04.740Z,55.87
2022-08-16T12:16:35.672Z,57.17
2022-08-16T12:19:07.387Z,57.61
2022-08-16T12:21:58.380Z,58.12
2022-08-16T12:24:29.556Z,55.21
2022-08-16T12:27:00.144Z,52.73
2022-08-16T12:29:30.081Z,52.94
2022-08-16T12:32:37.906Z,52.79
2022-08-16T12:34:52.705Z,52.98
2022-08-16T12:37:24.487Z,51.26
2022-08-16T12:39:58.821Z,51.15
2022-08-16T12:42:35.424Z,50.17
2022-08-16T12:45:12.642Z,50.32
2022-08-16T12:48:29.492Z,49.18
2022-08-16T12:50:49.354Z,50.61
2022-08-16T12:53:20.578Z,51.35
2022-08-16T12:55:50.180Z,52.85
2022-08-16T12:58:49.051Z,52.50
2022-08-16T13:01:12.928Z,52.20
2022-08-16T13:03:44.700Z,51.56
2022-08-16T13:06:20.183Z,50.96
2022-08-16T13:09:16.071Z,52.58
2022-08-16T13:11:58.023Z,48.27
2022-08-16T13:14:33.549Z,50.52
2022-08-16T13:17:06.567Z,49.26
2022-08-16T13:20:05.468Z,49.74
2022-08-16T13:22:25.136Z,48.58
2022-08-16T13:24:55.188Z,47.86
2022-08-16T13:27:59.473Z,49.46
2022-08-16T13:30:35.405Z,45.71
2022-08-16T13:33:13.162Z,45.44
2022-08-16T13:35:56.336Z,44.89
2022-08-16T13:38:37.088Z,45.38
2022-08-16T13:41:10.816Z,45.31
2022-08-16T13:43:39.963Z,47.99
2022-08-16T13:46:09.121Z,45.48
2022-08-16T13:48:44.393Z,46.22
2022-08-16T13:51:17.484Z,47.42
2022-08-16T13:53:59.758Z,46.87
2022-08-16T13:56:38.722Z,48.82
2022-08-16T13:59:19.244Z,48.37
2022-08-16T14:01:59.828Z,47.79
2022-08-16T14:04:34.345Z,46.58
2022-08-16T14:07:04.678Z,48.09
2022-08-16T14:09:34.466Z,50.12
2022-08-16T14:12:09.551Z,48.24
2022-08-16T14:14:38.288Z,48.00
2022-08-16T14:17:09.854Z,48.98
2022-08-16T14:19:45.098Z,49.80
2022-08-16T14:22:30.477Z,51.61
2022-08-16T14:25:03.180Z,50.51
2022-08-16T14:27:35.517Z,49.87
2022-08-16T14:30:10.458Z,49.33
2022-08-16T14:32:46.839Z,49.98
2022-08-16T14:35:36.592Z,50.31
2022-08-16T14:38:13.600Z,51.63
2022-08-16T14:40:52.784Z,52.34
2022-08-16T14:43:29.715Z,52.98
2022-08-16T14:45:59.173Z,53.75
2022-08-16T14:48:27.597Z,54.30
2022-08-16T14:50:56.128Z,54.20
2022-08-16T14:53:26.575Z,55.30
2022-08-16T14:55:55.025Z,54.83
2022-08-16T14:58:34.576Z,56.34
2022-08-16T15:01:05.872Z,57.10
2022-08-16T15:03:37.407Z,59.38
2022-08-16T15:06:07.140Z,58.93
2022-08-16T15:08:40.421Z,58.66
2022-08-16T15:11:08.718Z,58.75
2022-08-16T15:13:37.073Z,59.62
2022-08-16T15:16:05.703Z,57.49
2022-08-16T15:18:34.437Z,58.28
2022-08-16T15:21:05.178Z,57.42
2022-08-16T15:23:36.969Z,57.75
2022-08-16T15:26:09.136Z,57.30
2022-08-16T15:28:38.825Z,57.00
2022-08-16T15:31:13.022Z,57.73
2022-08-16T15:33:50.043Z,58.15
2022-08-16T15:36:21.270Z,58.55
2022-08-16T15:38:56.291Z,59.62
2022-08-16T15:41:43.432Z,60.47
2022-08-16T15:44:18.020Z,59.97
2022-08-16T15:46:55.805Z,59.02
2022-08-16T15:49:34.762Z,58.58
2022-08-16T15:52:17.000Z,58.09
2022-08-16T15:54:53.392Z,57.07
2022-08-16T15:57:25.752Z,57.87
2022-08-16T15:59:56.474Z,60.12
2022-08-16T16:02:40.728Z,61.49
2022-08-16T16:05:10.383Z,58.13
2022-08-16T16:07:55.587Z,58.77
2022-08-16T16:10:29.429Z,59.50
2022-08-16T16:13:00.976Z,60.86
2022-08-16T16:15:38.779Z,60.06
2022-08-16T16:18:09.426Z,61.57
2022-08-16T16:20:47.013Z,60.47
2022-08-16T16:23:17.892Z,59.07
2022-08-16T16:25:46.876Z,58.08
2022-08-16T16:29:08.041Z,57.62
2022-08-16T16:31:09.600Z,57.19
2022-08-16T16:33:43.409Z,57.92
2022-08-16T16:36:16.079Z,59.00
2022-08-16T16:38:47.482Z,58.39
2022-08-16T16:41:22.426Z,58.56
2022-08-16T16:43:53.706Z,59.06
2022-08-16T16:46:42.537Z,58.24
2022-08-16T16:49:14.214Z,60.10
2022-08-16T16:51:44.613Z,60.34
2022-08-16T16:54:13.703Z,61.66
2022-08-16T16:57:00.502Z,61.02
2022-08-16T16:59:28.833Z,59.34
2022-08-16T17:02:41.173Z,60.38
2022-08-16T17:04:48.408Z,60.42
2022-08-16T17:07:17.558Z,60.19
2022-08-16T17:09:48.903Z,59.84
2022-08-16T17:12:24.546Z,59.18
2022-08-16T17:15:07.448Z,59.97
2022-08-16T17:17:59.891Z,60.69
2022-08-16T17:20:26.790Z,59.24
2022-08-16T17:22:56.122Z,61.21
2022-08-16T17:25:36.873Z,61.78
2022-08-16T17:28:58.028Z,63.00
2022-08-16T17:30:58.575Z,62.61
2022-08-16T17:33:28.569Z,61.37
2022-08-16T17:36:08.719Z,63.19
2022-08-16T17:38:43.902Z,66.36
2022-08-16T17:41:26.530Z,63.04
2022-08-16T17:43:54.760Z,63.76
2022-08-16T17:46:50.466Z,67.09
2022-08-16T17:49:11.144Z,65.85
2022-08-16T17:51:40.160Z,66.06
2022-08-16T17:54:08.562Z,66.19
2022-08-16T17:56:48.716Z,67.13
2022-08-16T17:59:19.445Z,72.02
2022-08-16T18:01:47.755Z,73.72
2022-08-16T18:04:49.973Z,75.29
2022-08-16T18:07:05.621Z,76.43
2022-08-16T18:09:33.793Z,78.61
2022-08-16T18:12:41.643Z,80.38
2022-08-16T18:15:11.117Z,82.60
2022-08-16T18:17:39.644Z,85.00
2022-08-16T18:20:33.351Z,86.13
2022-08-16T18:23:23.544Z,89.97
2022-08-16T18:25:57.123Z,90.96
2022-08-16T18:28:27.241Z,91.49
2022-08-16T18:31:01.121Z,93.40
2022-08-16T18:33:38.248Z,95.39
2022-08-16T18:36:20.961Z,96.03
2022-08-16T18:38:50.418Z,97.66
2022-08-16T18:41:19.951Z,97.89
2022-08-16T18:44:22.233Z,98.82
2022-08-16T18:46:36.477Z,100.00
2022-08-16T18:49:11.874Z,100.00
2022-08-16T18:51:46.705Z,100.00
2022-08-16T18:54:18.270Z,100.00
2022-08-16T18:56:56.796Z,100.00
2022-08-16T18:59:30.173Z,100.00
2022-08-16T19:02:04.928Z,100.00
2022-08-16T19:04:47.996Z,100.00
2022-08-16T19:07:31.221Z,100.00
2022-08-16T19:10:03.923Z,100.00
2022-08-16T19:12:38.272Z,100.00
2022-08-16T19:15:26.251Z,100.00
2022-08-16T19:17:54.554Z,100.00
2022-08-16T19:20:25.172Z,100.00
2022-08-16T19:23:10.109Z,100.00
2022-08-16T19:25:48.361Z,100.00
2022-08-16T19:28:51.021Z,100.00
2022-08-16T19:31:16.051Z,100.00
2022-08-16T19:33:47.515Z,100.00
2022-08-16T19:36:31.529Z,100.00
2022-08-16T19:39:05.620Z,100.00
2022-08-16T19:41:36.490Z,100.00
2022-08-16T19:44:05.628Z,100.00
2022-08-16T19:46:34.985Z,100.00
2022-08-16T19:49:03.456Z,100.00
2022-08-16T19:51:31.810Z,100.00
2022-08-16T19:53:59.999Z,100.00
2022-08-16T19:56:28.216Z,100.00
2022-08-16T19:59:18.089Z,100.00
2022-08-16T20:01:46.232Z,100.00
2022-08-16T20:04:14.680Z,100.00
2022-08-16T20:06:42.930Z,100.00
2022-08-16T20:09:14.786Z,100.00
2022-08-16T20:11:45.505Z,100.00
2022-08-16T20:14:24.511Z,100.00
2022-08-16T20:16:55.745Z,100.00
2022-08-16T20:19:40.157Z,100.00
2022-08-16T20:22:42.145Z,100.00
2022-08-16T20:25:11.576Z,100.00
2022-08-16T20:27:41.134Z,100.00
2022-08-16T20:30:11.581Z,100.00
2022-08-16T20:32:40.252Z,100.00
2022-08-16T20:35:11.391Z,100.00
2022-08-16T20:37:43.598Z,100.00
2022-08-16T20:40:28.423Z,100.00
2022-08-16T20:43:07.694Z,100.00
2022-08-16T20:45:37.088Z,100.00
2022-08-16T20:48:06.067Z,100.00
2022-08-16T20:50:35.739Z,100.00
2022-08-16T20:53:04.930Z,100.00
2022-08-16T20:55:35.588Z,100.00
2022-08-16T20:58:07.356Z,100.00
2022-08-16T21:00:35.633Z,100.00
2022-08-16T21:03:12.172Z,100.00
2022-08-16T21:05:40.835Z,100.00
2022-08-16T21:08:28.684Z,100.00
2022-08-16T21:11:00.544Z,100.00
2022-08-16T21:13:30.926Z,100.00
2022-08-16T21:16:04.036Z,100.00
2022-08-16T21:18:32.168Z,100.00
2022-08-16T21:21:00.388Z,100.00
2022-08-16T21:23:28.529Z,100.00
2022-08-16T21:25:59.238Z,100.00
2022-08-16T21:28:40.239Z,100.00
2022-08-16T21:31:15.735Z,100.00
2022-08-16T21:33:45.170Z,100.00
2022-08-16T21:36:34.606Z,100.00
2022-08-16T21:39:07.431Z,100.00
2022-08-16T21:41:38.418Z,100.00
2022-08-16T21:44:06.858Z,100.00
2022-08-16T21:46:35.327Z,100.00
2022-08-16T21:49:05.273Z,100.00
2022-08-16T21:51:34.616Z,100.00
2022-08-16T21:54:03.253Z,100.00
2022-08-16T21:56:31.617Z,100.00
2022-08-16T21:58:59.788Z,100.00
2022-08-16T22:01:29.594Z,100.00
2022-08-16T22:04:01.472Z,100.00
2022-08-16T22:06:46.036Z,100.00
2022-08-16T22:09:18.011Z,100.00
2022-08-16T22:11:46.279Z,100.00
2022-08-16T22:14:14.585Z,100.00
2022-08-16T22:16:43.502Z,100.00
2022-08-16T22:19:13.280Z,100.00
2022-08-16T22:21:41.602Z,100.00
2022-08-16T22:24:10.217Z,100.00
2022-08-16T22:26:43.123Z,100.00
2022-08-16T22:29:13.268Z,100.00
2022-08-16T22:31:44.873Z,100.00
2022-08-16T22:34:14.325Z,100.00
2022-08-16T22:36:42.647Z,100.00
2022-08-16T22:39:13.257Z,100.00
2022-08-16T22:41:43.323Z,100.00
2022-08-16T22:44:13.000Z,100.00
2022-08-16T22:46:41.301Z,100.00
2022-08-16T22:49:10.687Z,100.00
2022-08-16T22:51:40.365Z,100.00
2022-08-16T22:54:33.915Z,100.00
2022-08-16T22:56:57.685Z,100.00
2022-08-16T22:59:26.156Z,100.00
2022-08-16T23:01:54.675Z,100.00
2022-08-16T23:04:24.821Z,100.00
2022-08-16T23:06:53.148Z,100.00
2022-08-16T23:09:21.707Z,100.00
2022-08-16T23:11:50.244Z,100.00
2022-08-16T23:14:18.696Z,100.00
2022-08-16T23:16:47.393Z,100.00
2022-08-16T23:19:16.692Z,100.00
2022-08-16T23:21:46.977Z,100.00
2022-08-16T23:24:20.781Z,100.00
2022-08-16T23:26:49.731Z,100.00
2022-08-16T23:29:23.305Z,100.00
2022-08-16T23:31:58.957Z,100.00
2022-08-16T23:34:28.679Z,100.00
2022-08-16T23:36:57.053Z,100.00
2022-08-16T23:39:25.612Z,100.00
2022-08-16T23:41:53.920Z,100.00
2022-08-16T23:44:55.451Z,100.00
2022-08-16T23:47:10.909Z,100.00
2022-08-16T23:50:00.427Z,100.00
2022-08-16T23:52:42.320Z,100.00
2022-08-16T23:55:17.324Z,100.00
2022-08-16T23:57:46.464Z,100.00
